Time;durP1;ratioP1;P1;durP2;ratioP2;P2;SDS_P1;SDS_P2;PMS_P1;PMS_P2;Temp;Humidity;BMP_temperature;BMP_pressure;BME280_temperature;BME280_humidity;BME280_pressure;Samples;Min_cycle;Max_cycle;Signal;HPM_P1;HPM_P2
2022/04/07 00:00:25;;;;;;;1.20;0.70;;;;;;;10.47;74.83;96215.38;6181826;28;20454;-82
2022/04/07 00:03:27;;;;;;;0.93;0.60;;;;;;;10.43;75.92;96208.75;6179173;28;20720;-82
2022/04/07 00:06:29;;;;;;;1.57;0.70;;;;;;;10.37;76.47;96201.50;6180267;28;20712;-82
2022/04/07 00:09:31;;;;;;;0.80;0.70;;;;;;;10.30;77.40;96196.00;6180326;28;20241;-82
2022/04/07 00:12:33;;;;;;;0.83;0.83;;;;;;;10.29;77.74;96198.78;6180189;28;20232;-82
2022/04/07 00:15:36;;;;;;;0.80;0.80;;;;;;;10.31;77.16;96188.91;6179774;28;20238;-82
2022/04/07 00:18:38;;;;;;;1.50;0.73;;;;;;;10.31;77.68;96186.28;6152396;28;20234;-82
2022/04/07 00:21:46;;;;;;;0.70;0.70;;;;;;;10.30;77.49;96177.53;6140288;28;20583;-82
2022/04/07 00:24:49;;;;;;;1.70;0.83;;;;;;;10.27;77.76;96190.25;6158199;28;20603;-82
2022/04/07 00:27:52;;;;;;;0.50;0.50;;;;;;;10.28;76.84;96205.06;6179708;28;20236;-82
2022/04/07 00:30:54;;;;;;;1.03;0.70;;;;;;;10.32;76.30;96199.31;6193155;28;20243;-82
2022/04/07 00:33:56;;;;;;;0.73;0.60;;;;;;;10.44;73.82;96185.84;6163126;28;20564;-82
2022/04/07 00:36:58;;;;;;;0.97;0.60;;;;;;;10.59;71.63;96190.34;6163454;28;20238;-82
2022/04/07 00:40:01;;;;;;;0.37;0.37;;;;;;;10.81;69.83;96194.22;6181926;28;20241;-82
2022/04/07 00:43:04;;;;;;;1.63;0.60;;;;;;;10.90;69.40;96195.88;6180675;28;20602;-82
2022/04/07 00:46:06;;;;;;;1.40;0.77;;;;;;;11.00;65.80;96191.28;6180700;28;20239;-82
2022/04/07 00:49:10;;;;;;;0.60;0.60;;;;;;;11.13;65.29;96196.09;6163815;28;20236;-82
2022/04/07 00:52:12;;;;;;;1.00;0.60;;;;;;;11.19;66.10;96189.31;6182405;28;20244;-82
2022/04/07 00:55:17;;;;;;;0.90;0.50;;;;;;;11.16;65.60;96181.75;6180043;28;20242;-82
2022/04/07 00:58:22;;;;;;;0.70;0.70;;;;;;;11.06;67.20;96184.53;6177699;28;20599;-82
2022/04/07 01:01:28;;;;;;;1.67;0.50;;;;;;;11.06;66.37;96189.81;6178044;28;20237;-82
2022/04/07 01:04:30;;;;;;;0.90;0.50;;;;;;;11.02;65.82;96191.13;6178468;28;20245;-82
2022/04/07 01:07:37;;;;;;;0.77;0.50;;;;;;;11.06;65.94;96201.22;6177857;28;20735;-82
2022/04/07 01:10:39;;;;;;;0.50;0.50;;;;;;;11.05;65.79;96194.28;6177752;28;20230;-82
2022/04/07 01:13:46;;;;;;;0.57;0.40;;;;;;;10.98;66.08;96206.44;6178106;28;20238;-82
2022/04/07 01:16:48;;;;;;;0.83;0.53;;;;;;;10.95;66.01;96183.03;6180628;28;20230;-82
2022/04/07 01:19:51;;;;;;;0.80;0.50;;;;;;;10.94;66.10;96189.31;6177945;28;20241;-82
2022/04/07 01:22:55;;;;;;;2.70;0.63;;;;;;;10.91;65.61;96189.63;6161587;28;20730;-82
2022/04/07 01:25:58;;;;;;;0.73;0.40;;;;;;;10.91;65.36;96183.50;6161600;28;20231;-82
2022/04/07 01:29:00;;;;;;;0.63;0.40;;;;;;;10.93;65.45;96181.53;6177429;28;20227;-82
2022/04/07 01:32:25;;;;;;;0.77;0.60;;;;;;;10.93;65.99;96184.19;6180485;28;20284;-82
2022/04/07 01:35:28;;;;;;;0.70;0.50;;;;;;;10.91;65.33;96181.69;6176786;28;20257;-82
2022/04/07 01:38:31;;;;;;;0.40;0.40;;;;;;;10.93;65.26;96190.28;6161672;28;20705;-83
2022/04/07 01:41:35;;;;;;;0.30;0.30;;;;;;;10.89;65.69;96183.66;6178249;28;20233;-82
2022/04/07 01:44:42;;;;;;;0.40;0.40;;;;;;;10.87;65.21;96185.66;6178587;28;20237;-82
2022/04/07 01:47:45;;;;;;;1.33;0.40;;;;;;;10.89;64.30;96188.94;6178609;28;20237;-82
2022/04/07 01:50:50;;;;;;;0.30;0.30;;;;;;;10.88;64.17;96178.59;6177372;28;20760;-82
2022/04/07 01:53:53;;;;;;;0.30;0.30;;;;;;;10.85;64.42;96168.34;6134817;28;1268108;-82
2022/04/07 01:56:56;;;;;;;0.87;0.40;;;;;;;10.84;62.80;96169.31;6178789;28;20237;-82
2022/04/07 02:00:00;;;;;;;0.77;0.30;;;;;;;10.87;62.82;96164.56;6179680;28;20237;-82
2022/04/07 02:03:05;;;;;;;0.30;0.30;;;;;;;10.86;62.67;96167.34;6138383;28;20241;-82
2022/04/07 02:06:17;;;;;;;0.30;0.30;;;;;;;10.91;62.64;96171.16;6162852;28;20226;-82
2022/04/07 02:09:19;;;;;;;0.60;0.27;;;;;;;10.87;62.32;96167.19;6177598;28;20217;-82
2022/04/07 02:12:22;;;;;;;0.30;0.20;;;;;;;10.91;61.59;96175.59;6180450;28;20607;-82
2022/04/07 02:15:28;;;;;;;0.40;0.20;;;;;;;10.92;61.48;96180.72;6180109;28;20225;-82
2022/04/07 02:18:30;;;;;;;0.30;0.30;;;;;;;10.92;61.73;96179.88;6161854;28;20235;-82
2022/04/07 02:21:32;;;;;;;0.20;0.20;;;;;;;10.87;62.38;96183.03;6162850;28;20229;-82
2022/04/07 02:24:37;;;;;;;0.40;0.30;;;;;;;10.78;63.52;96169.97;6162151;28;20233;-82
2022/04/07 02:27:42;;;;;;;0.57;0.20;;;;;;;10.70;63.68;96179.50;6178673;28;20226;-82
2022/04/07 02:30:45;;;;;;;0.20;0.20;;;;;;;10.63;64.46;96175.03;6189540;28;20235;-82
2022/04/07 02:33:47;;;;;;;0.50;0.30;;;;;;;10.60;64.51;96172.72;6177961;28;20253;-82
2022/04/07 02:36:49;;;;;;;0.20;0.20;;;;;;;10.53;65.57;96175.16;6168220;28;20614;-82
2022/04/07 02:39:53;;;;;;;0.20;0.20;;;;;;;10.49;66.12;96178.28;6161793;28;20222;-82
2022/04/07 02:42:55;;;;;;;0.30;0.30;;;;;;;10.42;66.88;96185.19;6177603;28;20716;-82
2022/04/07 02:45:57;;;;;;;0.30;0.30;;;;;;;10.36;67.35;96184.00;6161189;28;20248;-82
2022/04/07 02:48:59;;;;;;;0.40;0.30;;;;;;;10.41;66.84;96183.53;6178075;28;22186;-82
2022/04/07 02:52:01;;;;;;;0.23;0.17;;;;;;;10.39;66.62;96194.22;6126772;28;20256;-83
2022/04/07 02:55:04;;;;;;;0.30;0.30;;;;;;;10.32;67.68;96170.31;6179120;28;20237;-82
2022/04/07 02:58:07;;;;;;;0.60;0.37;;;;;;;10.26;68.64;96172.75;6179632;28;20356;-82
2022/04/07 03:01:14;;;;;;;0.20;0.20;;;;;;;10.20;69.19;96178.66;6182817;28;20316;-82
2022/04/07 03:04:16;;;;;;;0.53;0.30;;;;;;;10.15;69.77;96183.53;6182713;28;20252;-82
2022/04/07 03:07:19;;;;;;;1.90;0.60;;;;;;;10.12;69.87;96176.78;6183092;28;20603;-82
2022/04/07 03:10:22;;;;;;;0.40;0.33;;;;;;;10.03;71.11;96183.00;6166660;28;20245;-83
2022/04/07 03:13:24;;;;;;;0.40;0.37;;;;;;;9.96;71.24;96188.06;6165544;28;20217;-82
2022/04/07 03:16:26;;;;;;;0.50;0.47;;;;;;;9.87;72.56;96196.06;6182737;28;20663;-82
2022/04/07 03:19:27;;;;;;;0.30;0.30;;;;;;;9.82;73.60;96199.16;6181661;28;20291;-82
2022/04/07 03:22:29;;;;;;;1.40;0.53;;;;;;;9.75;73.34;96197.31;6183660;28;20244;-82
2022/04/07 03:25:31;;;;;;;0.57;0.30;;;;;;;9.69;74.47;96206.63;6178003;28;20319;-82
2022/04/07 03:28:33;;;;;;;0.70;0.50;;;;;;;9.57;76.40;96206.09;6165674;28;20234;-82
2022/04/07 03:31:35;;;;;;;1.13;0.60;;;;;;;9.49;76.79;96213.91;6172332;28;20259;-82
2022/04/07 03:34:39;;;;;;;0.70;0.60;;;;;;;9.43;77.81;96214.50;6162589;28;20700;-81
2022/04/07 03:37:41;;;;;;;0.67;0.53;;;;;;;9.37;77.74;96219.56;6181482;28;20748;-82
2022/04/07 03:40:43;;;;;;;2.50;0.50;;;;;;;9.33;78.29;96212.94;6181131;28;20241;-82
2022/04/07 03:43:45;;;;;;;0.70;0.40;;;;;;;9.29;78.62;96214.22;6165102;28;20267;-82
2022/04/07 03:46:47;;;;;;;0.83;0.40;;;;;;;9.24;78.84;96212.88;6164309;28;20279;-82
2022/04/07 03:49:49;;;;;;;1.80;0.47;;;;;;;9.17;79.00;96205.75;6180122;28;20240;-82
2022/04/07 03:52:52;;;;;;;0.50;0.40;;;;;;;9.13;79.67;96210.47;6165243;28;20249;-82
2022/04/07 03:55:54;;;;;;;1.50;0.30;;;;;;;9.08;79.50;96201.38;6180085;28;20225;-82
2022/04/07 03:58:58;;;;;;;0.50;0.30;;;;;;;9.05;79.91;96207.75;6164612;28;20236;-82
2022/04/07 04:02:00;;;;;;;0.90;0.50;;;;;;;8.98;80.19;96198.00;6164484;28;20228;-82
2022/04/07 04:05:03;;;;;;;1.20;0.70;;;;;;;8.95;80.43;96200.91;6180649;28;20262;-82
2022/04/07 04:08:05;;;;;;;1.10;0.50;;;;;;;8.91;81.19;96204.81;6165542;28;20236;-82
2022/04/07 04:11:08;;;;;;;0.30;0.30;;;;;;;8.86;82.17;96200.84;6175613;28;20269;-82
2022/04/07 04:14:10;;;;;;;0.63;0.40;;;;;;;8.78;81.94;96206.00;6184272;28;20238;-82
2022/04/07 04:17:12;;;;;;;0.63;0.50;;;;;;;8.75;82.15;96201.03;6183860;28;20235;-82
2022/04/07 04:20:14;;;;;;;1.00;0.50;;;;;;;8.73;82.75;96199.53;6175124;28;20226;-82
2022/04/07 04:23:17;;;;;;;1.93;0.60;;;;;;;8.73;82.75;96186.38;6165076;28;20251;-82
2022/04/07 04:26:19;;;;;;;0.77;0.60;;;;;;;8.73;82.54;96187.22;6179677;28;20233;-82
2022/04/07 04:29:21;;;;;;;0.40;0.40;;;;;;;8.79;81.76;96183.16;6180320;28;20224;-82
2022/04/07 04:32:23;;;;;;;0.63;0.40;;;;;;;8.87;81.02;96178.00;6203448;28;20712;-83
2022/04/07 04:35:25;;;;;;;0.97;0.40;;;;;;;8.92;79.85;96178.34;6180252;28;20235;-82
2022/04/07 04:38:27;;;;;;;0.47;0.33;;;;;;;8.95;79.32;96177.22;6179980;28;20237;-82
2022/04/07 04:41:29;;;;;;;0.40;0.40;;;;;;;8.99;78.87;96168.03;6180287;28;20240;-82
2022/04/07 04:44:32;;;;;;;0.37;0.37;;;;;;;9.02;78.90;96159.88;6179454;28;20233;-82
2022/04/07 04:47:34;;;;;;;0.60;0.40;;;;;;;9.01;78.39;96161.66;6180282;28;20255;-82
2022/04/07 04:50:36;;;;;;;0.70;0.50;;;;;;;9.02;77.89;96159.88;6180935;28;20232;-82
2022/04/07 04:53:38;;;;;;;0.50;0.50;;;;;;;9.03;77.88;96169.41;6179195;28;20731;-82
2022/04/07 04:56:41;;;;;;;0.30;0.30;;;;;;;9.03;78.60;96157.09;6179627;28;20225;-82
2022/04/07 04:59:43;;;;;;;0.50;0.40;;;;;;;8.95;78.88;96156.19;6179763;28;20239;-83
2022/04/07 05:02:46;;;;;;;2.30;0.43;;;;;;;8.84;79.54;96155.44;6180895;28;20615;-82
2022/04/07 05:05:48;;;;;;;0.87;0.50;;;;;;;8.79;80.14;96168.19;6180709;28;20240;-82
2022/04/07 05:08:50;;;;;;;0.40;0.40;;;;;;;8.75;80.28;96169.47;6163900;28;20225;-82
2022/04/07 05:11:52;;;;;;;1.90;0.40;;;;;;;8.72;81.58;96175.03;6179062;28;20236;-82
2022/04/07 05:14:54;;;;;;;0.70;0.67;;;;;;;8.75;81.05;96160.75;6162173;28;20243;-82
2022/04/07 05:17:56;;;;;;;0.60;0.53;;;;;;;8.84;80.76;96158.06;6162577;28;20586;-82
2022/04/07 05:20:58;;;;;;;0.57;0.50;;;;;;;8.84;80.29;96160.69;6180846;28;20239;-82
2022/04/07 05:24:02;;;;;;;0.60;0.60;;;;;;;8.83;80.89;96169.56;6180522;28;20243;-82
2022/04/07 05:27:05;;;;;;;1.03;0.70;;;;;;;8.82;80.92;96162.63;6170847;28;20619;-82
2022/04/07 05:30:15;;;;;;;0.90;0.90;;;;;;;8.81;81.31;96175.94;6183669;28;20339;-82
2022/04/07 05:33:18;;;;;;;1.17;1.07;;;;;;;8.83;81.14;96180.09;6183450;28;20218;-82
2022/04/07 05:36:20;;;;;;;2.03;1.20;;;;;;;8.91;81.21;96181.13;6180318;28;20217;-82
2022/04/07 05:39:22;;;;;;;1.10;0.90;;;;;;;8.95;80.67;96180.69;6180076;28;20625;-82
2022/04/07 05:42:24;;;;;;;0.87;0.87;;;;;;;8.96;81.18;96178.88;6161951;28;20250;-82
2022/04/07 05:45:26;;;;;;;1.80;1.40;;;;;;;8.98;80.97;96184.84;6178216;28;20835;-83
2022/04/07 05:48:28;;;;;;;1.20;1.10;;;;;;;9.06;81.35;96187.53;6161773;28;20229;-82
2022/04/07 05:51:50;;;;;;;1.67;1.10;;;;;;;9.14;80.54;96182.34;6162561;28;20233;-82
2022/04/07 05:54:53;;;;;;;1.53;1.30;;;;;;;9.28;80.11;96181.81;6177850;28;20712;-82
2022/04/07 05:57:55;;;;;;;2.67;1.60;;;;;;;9.46;78.10;96180.00;6162902;28;20652;-82
2022/04/07 06:00:57;;;;;;;1.43;1.33;;;;;;;9.57;78.07;96174.47;6178280;28;20239;-82
2022/04/07 06:03:59;;;;;;;1.93;1.40;;;;;;;9.61;78.46;96174.97;6178413;28;20236;-82
2022/04/07 06:07:01;;;;;;;1.73;1.30;;;;;;;9.65;78.67;96171.06;6178395;28;20722;-82
2022/04/07 06:10:05;;;;;;;1.60;1.50;;;;;;;9.67;79.02;96166.47;6154541;28;20234;-82
2022/04/07 06:13:09;;;;;;;1.60;1.50;;;;;;;9.82;76.10;96170.19;6178008;28;20245;-83
2022/04/07 06:16:11;;;;;;;1.80;1.60;;;;;;;9.95;75.72;96175.03;6161675;28;20237;-82
2022/04/07 06:19:13;;;;;;;1.73;1.60;;;;;;;10.02;74.82;96170.78;6178537;28;20248;-82
2022/04/07 06:22:15;;;;;;;1.40;1.30;;;;;;;10.15;74.97;96173.00;6179170;28;20267;-82
2022/04/07 06:25:18;;;;;;;2.77;1.50;;;;;;;10.23;73.98;96173.91;6178947;28;20335;-82
2022/04/07 06:28:22;;;;;;;1.50;1.40;;;;;;;10.33;73.35;96165.88;6161804;28;20715;-82
2022/04/07 06:31:24;;;;;;;1.50;1.40;;;;;;;10.40;73.33;96158.13;6182185;28;20237;-82
2022/04/07 06:34:31;;;;;;;1.40;1.30;;;;;;;10.51;73.09;96155.22;6162047;28;20234;-82
2022/04/07 06:37:55;;;;;;;5.50;1.27;;;;;;;10.59;72.62;96160.50;6175306;28;20230;-82
2022/04/07 06:40:58;;;;;;;1.53;1.43;;;;;;;10.66;72.48;96154.44;6175822;28;20248;-82
2022/04/07 06:44:00;;;;;;;1.50;1.40;;;;;;;10.79;72.14;96155.78;6166615;28;20229;-83
2022/04/07 06:47:02;;;;;;;1.70;1.10;;;;;;;10.90;72.18;96158.09;6182289;28;20236;-83
2022/04/07 06:50:07;;;;;;;0.97;0.90;;;;;;;11.00;72.13;96159.59;6182103;28;20243;-82
2022/04/07 06:53:09;;;;;;;1.37;1.00;;;;;;;11.16;71.75;96161.47;6165815;28;20600;-83
2022/04/07 06:56:11;;;;;;;1.60;1.10;;;;;;;11.27;71.04;96158.50;6158815;28;20240;-83
2022/04/07 06:59:13;;;;;;;1.30;1.20;;;;;;;11.31;69.99;96170.38;6173417;28;20235;-83
2022/04/07 07:02:16;;;;;;;1.20;1.07;;;;;;;11.34;69.55;96162.13;6183348;28;20241;-82
2022/04/07 07:05:23;;;;;;;0.90;0.90;;;;;;;11.49;69.67;96170.19;6181746;28;20237;-82
2022/04/07 07:08:25;;;;;;;1.80;1.00;;;;;;;11.61;69.55;96163.59;6182964;28;20735;-83
2022/04/07 07:11:27;;;;;;;1.47;1.00;;;;;;;11.64;69.02;96168.53;6165973;28;20238;-83
2022/04/07 07:14:30;;;;;;;1.60;1.10;;;;;;;11.62;68.39;96170.53;6183870;28;20247;-83
2022/04/07 07:17:38;;;;;;;2.00;1.00;;;;;;;11.57;68.55;96164.09;6181375;28;20232;-83
2022/04/07 07:20:40;;;;;;;0.83;0.83;;;;;;;11.62;68.84;96167.06;6165117;28;20245;-82
2022/04/07 07:23:42;;;;;;;1.00;0.90;;;;;;;11.73;68.72;96164.06;6182950;28;20622;-83
2022/04/07 07:26:45;;;;;;;0.93;0.70;;;;;;;11.86;68.56;96159.13;6181129;28;20597;-83
2022/04/07 07:29:47;;;;;;;0.67;0.67;;;;;;;11.90;67.81;96162.25;6180584;28;20218;-83
2022/04/07 07:32:51;;;;;;;0.67;0.60;;;;;;;11.96;67.22;96169.53;6171400;28;20336;-82
2022/04/07 07:35:53;;;;;;;0.60;0.60;;;;;;;11.96;66.81;96170.34;6180020;28;20243;-82
2022/04/07 07:38:56;;;;;;;1.60;0.60;;;;;;;11.99;67.01;96156.78;6182188;28;20231;-83
2022/04/07 07:41:58;;;;;;;0.50;0.50;;;;;;;12.05;65.75;96153.47;6174371;28;20246;-83
2022/04/07 07:45:00;;;;;;;0.60;0.50;;;;;;;12.16;65.90;96155.75;6181545;28;20248;-83
2022/04/07 07:48:03;;;;;;;0.43;0.43;;;;;;;12.08;64.78;96163.69;6183293;28;20235;-83
2022/04/07 07:51:05;;;;;;;1.43;0.57;;;;;;;12.15;63.98;96158.56;6166577;28;20245;-82
2022/04/07 07:54:07;;;;;;;0.60;0.60;;;;;;;12.15;63.37;96150.63;6183360;28;20243;-83
2022/04/07 07:57:09;;;;;;;0.43;0.43;;;;;;;12.18;63.42;96159.03;6156495;28;20645;-83
2022/04/07 08:00:14;;;;;;;0.60;0.60;;;;;;;12.26;63.50;96147.63;6165484;28;20411;-83
2022/04/07 08:03:16;;;;;;;0.63;0.53;;;;;;;12.30;62.96;96156.00;6165034;28;20578;-83
2022/04/07 08:06:18;;;;;;;0.50;0.50;;;;;;;12.44;62.25;96153.50;6181260;28;20230;-83
2022/04/07 08:09:21;;;;;;;0.50;0.43;;;;;;;12.45;62.25;96146.38;6180536;28;20686;-83
2022/04/07 08:12:26;;;;;;;0.50;0.50;;;;;;;12.44;62.37;96148.19;6180194;28;20245;-83
2022/04/07 08:15:30;;;;;;;1.27;0.50;;;;;;;12.43;61.42;96148.38;6164091;28;20250;-83
2022/04/07 08:18:33;;;;;;;0.70;0.70;;;;;;;12.36;62.56;96145.59;6180153;28;20230;-83
2022/04/07 08:21:37;;;;;;;0.50;0.50;;;;;;;12.43;61.56;96149.19;6165061;28;20239;-83
2022/04/07 08:24:39;;;;;;;0.63;0.63;;;;;;;12.67;61.52;96142.97;6179860;28;20711;-83
2022/04/07 08:27:41;;;;;;;0.83;0.60;;;;;;;12.92;60.40;96146.28;6172881;28;20217;-82
2022/04/07 08:30:44;;;;;;;0.47;0.43;;;;;;;13.17;61.07;96128.44;6177059;28;20226;-83
2022/04/07 08:33:46;;;;;;;0.67;0.67;;;;;;;13.33;58.98;96132.78;6178780;28;20231;-83
2022/04/07 08:36:48;;;;;;;1.37;0.50;;;;;;;13.41;58.41;96128.22;6180922;28;20708;-84
2022/04/07 08:39:51;;;;;;;0.50;0.50;;;;;;;13.62;57.68;96114.31;6179886;28;20235;-83
2022/04/07 08:43:00;;;;;;;0.40;0.40;;;;;;;13.76;56.42;96118.00;6164334;28;20233;-83
2022/04/07 08:46:06;;;;;;;0.90;0.60;;;;;;;14.28;56.96;96123.19;6178899;28;20232;-83
2022/04/07 08:49:11;;;;;;;0.30;0.30;;;;;;;14.65;55.11;96117.78;6157049;28;20232;-83
2022/04/07 08:52:14;;;;;;;1.37;0.43;;;;;;;14.87;54.58;96100.06;6179539;28;20248;-83
2022/04/07 08:55:17;;;;;;;0.50;0.40;;;;;;;14.95;54.38;96101.78;6193714;28;20232;-83
2022/04/07 08:58:19;;;;;;;0.40;0.40;;;;;;;15.49;52.93;96110.03;6180018;28;20275;-83
2022/04/07 09:01:21;;;;;;;0.50;0.40;;;;;;;15.98;50.45;96094.03;6162250;28;20235;-83
2022/04/07 09:04:24;;;;;;;0.40;0.40;;;;;;;16.18;49.40;96080.84;6163579;28;20236;-83
2022/04/07 09:07:31;;;;;;;1.13;0.50;;;;;;;15.90;47.57;96075.56;6154925;28;20248;-83
2022/04/07 09:10:34;;;;;;;0.93;0.43;;;;;;;15.98;49.82;96093.22;6149771;28;20226;-83
2022/04/07 09:13:39;;;;;;;0.50;0.30;;;;;;;16.35;46.82;96078.69;6161596;28;20237;-83
2022/04/07 09:16:41;;;;;;;0.77;0.50;;;;;;;16.45;47.09;96076.47;6175843;28;20324;-83
2022/04/07 09:19:50;;;;;;;0.57;0.40;;;;;;;17.31;47.40;96066.84;6162656;28;20233;-83
2022/04/07 09:22:57;;;;;;;0.67;0.40;;;;;;;17.64;43.18;96077.56;6177982;28;20231;-84
2022/04/07 09:26:00;;;;;;;0.30;0.30;;;;;;;16.73;45.67;96071.88;6179805;28;20261;-83
2022/04/07 09:29:11;;;;;;;0.87;0.57;;;;;;;16.72;45.44;96070.25;6179095;28;20352;-83
2022/04/07 09:32:22;;;;;;;0.30;0.30;;;;;;;17.64;44.26;96061.56;6202709;28;20625;-83
2022/04/07 09:35:24;;;;;;;0.40;0.33;;;;;;;17.74;43.59;96064.63;6181379;28;20750;-83
2022/04/07 09:38:31;;;;;;;0.50;0.43;;;;;;;17.67;42.01;96047.78;6166132;28;20601;-84
2022/04/07 09:41:34;;;;;;;0.60;0.40;;;;;;;17.15;41.78;96057.41;6178385;28;20596;-83
2022/04/07 09:44:39;;;;;;;0.30;0.30;;;;;;;17.17;42.05;96049.22;6177719;28;20233;-83
2022/04/07 09:47:46;;;;;;;0.30;0.30;;;;;;;17.21;41.26;96047.78;6178604;28;20303;-83
2022/04/07 09:51:03;;;;;;;0.40;0.40;;;;;;;17.04;42.85;96034.03;6177932;28;20225;-82
2022/04/07 09:54:09;;;;;;;0.30;0.30;;;;;;;17.01;42.48;96033.59;6161461;28;20245;-83
2022/04/07 09:57:14;;;;;;;0.43;0.30;;;;;;;17.29;42.89;96034.22;6179163;28;20225;-83
2022/04/07 10:00:16;;;;;;;0.30;0.30;;;;;;;17.18;42.11;96034.84;6161867;28;20216;-83
2022/04/07 10:03:19;;;;;;;0.27;0.27;;;;;;;17.25;40.64;96051.69;6179650;28;20209;-83
2022/04/07 10:06:21;;;;;;;0.40;0.40;;;;;;;16.78;41.70;96034.78;6179486;28;20243;-83
2022/04/07 10:09:25;;;;;;;1.07;0.37;;;;;;;16.99;42.49;96031.13;6167353;28;20236;-83
2022/04/07 10:12:27;;;;;;;0.90;0.50;;;;;;;17.15;42.34;96032.59;6182826;28;20700;-83
2022/04/07 10:15:30;;;;;;;1.00;0.30;;;;;;;17.28;42.17;96025.41;6184448;28;20286;-83
2022/04/07 10:18:42;;;;;;;0.60;0.47;;;;;;;17.15;42.26;96008.63;6166024;28;20225;-83
2022/04/07 10:22:09;;;;;;;0.47;0.47;;;;;;;16.79;42.24;96027.63;6185570;28;20243;-82
2022/04/07 10:25:13;;;;;;;1.03;0.40;;;;;;;16.66;42.35;96041.75;6182251;28;20229;-82
2022/04/07 10:28:17;;;;;;;0.40;0.40;;;;;;;16.73;41.94;96039.09;6181782;28;20603;-82
2022/04/07 10:31:19;;;;;;;0.60;0.43;;;;;;;16.45;41.74;96013.38;6195792;28;20612;-83
2022/04/07 10:34:31;;;;;;;0.37;0.30;;;;;;;16.99;40.50;95999.16;6181677;28;20259;-83
2022/04/07 10:37:45;;;;;;;0.40;0.40;;;;;;;17.15;40.57;96005.94;6182496;28;20873;-83
2022/04/07 10:40:51;;;;;;;0.30;0.30;;;;;;;17.21;39.79;95981.13;6158808;28;20237;-83
2022/04/07 10:44:08;;;;;;;0.40;0.40;;;;;;;18.29;38.96;95979.63;6181690;28;20283;-83
2022/04/07 10:47:10;;;;;;;0.70;0.40;;;;;;;18.62;38.10;95974.16;6166127;28;20244;-84
2022/04/07 10:50:12;;;;;;;0.50;0.30;;;;;;;18.95;36.54;95973.94;6182051;28;20236;-83
2022/04/07 10:53:29;;;;;;;0.40;0.40;;;;;;;19.27;37.84;95972.00;6157505;28;20600;-83
2022/04/07 10:56:34;;;;;;;2.10;0.40;;;;;;;19.25;37.62;95976.78;6183180;28;20241;-83
2022/04/07 10:59:40;;;;;;;0.30;0.30;;;;;;;19.47;36.96;95961.94;6181944;28;20244;-83
2022/04/07 11:02:42;;;;;;;0.67;0.30;;;;;;;20.14;36.05;95974.44;6181914;28;20229;-83
2022/04/07 11:05:58;;;;;;;0.97;0.60;;;;;;;20.05;34.22;95980.31;6181391;28;20225;-83
2022/04/07 11:09:14;;;;;;;1.20;0.47;;;;;;;20.61;35.09;96002.31;6181266;28;20237;-83
2022/04/07 11:12:22;;;;;;;0.30;0.30;;;;;;;20.79;33.65;95958.53;6188536;28;20236;-83
2022/04/07 11:16:00;;;;;;;0.47;0.47;;;;;;;20.94;33.32;95942.03;6182581;28;20226;-83
2022/04/07 11:19:10;;;;;;;1.00;0.30;;;;;;;21.34;33.85;95924.25;6156982;28;20249;-83
2022/04/07 11:22:13;;;;;;;1.20;0.40;;;;;;;21.17;32.70;95935.84;6141636;28;20246;-83
2022/04/07 11:25:21;;;;;;;0.60;0.50;;;;;;;21.21;31.21;95937.06;6179743;28;20241;-83
2022/04/07 11:28:25;;;;;;;1.80;0.37;;;;;;;20.68;30.73;95929.00;6166376;28;20241;-84
2022/04/07 11:31:40;;;;;;;1.87;0.40;;;;;;;21.10;32.15;95927.09;6182683;28;20601;-84
2022/04/07 11:34:50;;;;;;;0.57;0.30;;;;;;;22.02;31.88;95915.53;6182368;28;20234;-84
2022/04/07 11:37:53;;;;;;;0.40;0.40;;;;;;;21.84;31.16;95913.00;6181715;28;20241;-83
2022/04/07 11:41:11;;;;;;;0.30;0.20;;;;;;;21.85;30.35;95908.44;6167578;28;20233;-84
2022/04/07 11:44:13;;;;;;;0.90;0.40;;;;;;;21.33;31.35;95927.16;6182757;28;20237;-84
2022/04/07 11:47:25;;;;;;;1.50;0.40;;;;;;;21.04;31.06;95912.78;6183132;28;20221;-83
2022/04/07 11:50:28;;;;;;;0.30;0.30;;;;;;;21.75;31.25;95900.97;6180445;28;20230;-83
2022/04/07 11:53:30;;;;;;;0.40;0.30;;;;;;;22.48;31.35;95894.91;6164884;28;21063;-83
2022/04/07 11:56:34;;;;;;;0.30;0.30;;;;;;;22.48;30.81;95894.91;6164668;28;20738;-84
2022/04/07 11:59:37;;;;;;;0.30;0.30;;;;;;;22.33;30.90;95881.19;6164134;28;20229;-84
2022/04/07 12:02:39;;;;;;;0.50;0.30;;;;;;;22.38;30.06;95879.41;6180567;28;20225;-84
2022/04/07 12:05:43;;;;;;;0.97;0.30;;;;;;;21.86;30.07;95889.38;6179674;28;20225;-84
2022/04/07 12:08:45;;;;;;;0.67;0.20;;;;;;;21.72;30.96;95867.34;6164155;28;20281;-83
2022/04/07 12:11:48;;;;;;;0.97;0.50;;;;;;;22.19;29.32;95859.16;6179262;28;20257;-83
2022/04/07 12:14:51;;;;;;;0.40;0.30;;;;;;;22.69;30.16;95853.06;6180930;28;20213;-84
2022/04/07 12:18:07;;;;;;;0.23;0.23;;;;;;;23.34;28.81;95847.09;6179677;28;20237;-83
2022/04/07 12:21:10;;;;;;;0.87;0.47;;;;;;;23.49;28.46;95834.69;6156503;28;20293;-84
2022/04/07 12:24:13;;;;;;;1.00;0.40;;;;;;;23.54;27.68;95845.53;6164479;28;20220;-84
2022/04/07 12:27:27;;;;;;;0.67;0.30;;;;;;;23.50;26.88;95833.63;6179378;28;20744;-84
2022/04/07 12:30:47;;;;;;;1.30;0.40;;;;;;;23.79;26.01;95822.66;6188204;28;20241;-84
2022/04/07 12:33:49;;;;;;;0.40;0.40;;;;;;;23.99;27.43;95833.66;6159900;28;20241;-84
2022/04/07 12:36:52;;;;;;;0.50;0.47;;;;;;;24.27;26.25;95829.94;6164132;28;20659;-83
2022/04/07 12:40:01;;;;;;;1.10;0.50;;;;;;;24.53;25.01;95826.44;6178831;28;20237;-84
2022/04/07 12:43:03;;;;;;;0.50;0.30;;;;;;;23.64;24.89;95814.41;6179126;28;20787;-84
2022/04/07 12:46:07;;;;;;;0.60;0.40;;;;;;;23.76;24.58;95813.19;6180750;28;20229;-83
2022/04/07 12:49:09;;;;;;;1.50;0.30;;;;;;;23.66;25.54;95804.19;6181346;28;20237;-84
2022/04/07 12:52:14;;;;;;;0.50;0.40;;;;;;;23.97;26.38;95797.25;6180909;28;20718;-84
2022/04/07 12:55:17;;;;;;;1.50;0.50;;;;;;;24.06;25.67;95798.41;6181882;28;20601;-84
2022/04/07 12:58:26;;;;;;;0.40;0.40;;;;;;;24.26;25.57;95796.78;6178733;28;20620;-84
2022/04/07 13:01:30;;;;;;;4.37;0.50;;;;;;;24.35;24.15;95790.94;6162646;28;20241;-84
2022/04/07 13:04:46;;;;;;;0.23;0.20;;;;;;;24.30;24.35;95785.50;6178539;28;20244;-84
2022/04/07 13:07:48;;;;;;;0.40;0.30;;;;;;;24.21;23.96;95774.31;6178058;28;20610;-83
2022/04/07 13:10:51;;;;;;;0.93;0.40;;;;;;;23.32;24.86;95787.31;6178808;28;20843;-83
2022/04/07 13:13:53;;;;;;;0.30;0.23;;;;;;;22.83;25.99;95775.56;6178570;28;20248;-84
2022/04/07 13:16:55;;;;;;;3.30;0.30;;;;;;;22.53;25.59;95779.41;6161910;28;20232;-84
2022/04/07 13:19:57;;;;;;;1.70;0.53;;;;;;;22.16;26.67;95770.16;6177597;28;20756;-84
2022/04/07 13:22:59;;;;;;;0.50;0.40;;;;;;;21.81;26.45;95759.56;6163572;28;20233;-84
2022/04/07 13:26:01;;;;;;;1.70;0.50;;;;;;;22.29;26.96;95746.47;6170035;28;20221;-84
2022/04/07 13:29:03;;;;;;;1.43;0.50;;;;;;;22.51;26.43;95749.25;6180587;28;20232;-84
2022/04/07 13:32:06;;;;;;;1.40;0.30;;;;;;;22.36;26.25;95743.63;6167917;28;20579;-84
2022/04/07 13:35:09;;;;;;;0.50;0.30;;;;;;;22.22;26.37;95739.63;6162465;28;20232;-83
2022/04/07 13:38:11;;;;;;;1.17;0.50;;;;;;;22.07;26.29;95729.44;6179276;28;20255;-84
2022/04/07 13:41:13;;;;;;;1.00;0.40;;;;;;;;;;6178363;28;20241;-84
2022/04/07 13:44:15;;;;;;;0.63;0.40;;;;;;;20.76;27.55;95723.06;6178529;28;20256;-84
2022/04/07 13:47:17;;;;;;;0.40;0.30;;;;;;;20.90;28.00;95708.34;6177455;28;20759;-84
2022/04/07 13:50:19;;;;;;;0.67;0.30;;;;;;;21.13;28.29;95704.81;6177981;28;20220;-83
2022/04/07 13:53:22;;;;;;;0.93;0.37;;;;;;;21.19;28.81;95701.19;6178257;28;20244;-83
2022/04/07 13:56:24;;;;;;;0.60;0.40;;;;;;;21.30;28.97;95688.78;6177897;28;20621;-84
2022/04/07 13:59:26;;;;;;;0.20;0.20;;;;;;;21.37;27.58;95686.78;6162658;28;20363;-83
2022/04/07 14:02:29;;;;;;;0.67;0.40;;;;;;;21.60;27.88;95675.13;6177684;28;20604;-83
2022/04/07 14:05:33;;;;;;;0.50;0.43;;;;;;;21.82;27.89;95672.56;6177302;28;20648;-84
2022/04/07 14:08:35;;;;;;;0.50;0.40;;;;;;;21.91;27.57;95668.41;6161095;28;20232;-84
2022/04/07 14:11:38;;;;;;;1.37;0.43;;;;;;;21.75;28.40;95661.97;6179147;28;20828;-83
2022/04/07 14:14:41;;;;;;;0.80;0.50;;;;;;;21.47;28.04;95653.94;6160906;28;20237;-83
2022/04/07 14:17:45;;;;;;;0.63;0.30;;;;;;;21.74;27.80;95641.56;6161437;28;20649;-83
2022/04/07 14:20:48;;;;;;;0.40;0.27;;;;;;;21.93;27.58;95639.44;6153655;28;20242;-83
2022/04/07 14:23:55;;;;;;;0.83;0.40;;;;;;;22.21;26.10;95635.88;6172818;28;20733;-83
2022/04/07 14:26:57;;;;;;;0.53;0.30;;;;;;;22.44;25.17;95624.94;6178854;28;20323;-84
2022/04/07 14:29:59;;;;;;;0.47;0.30;;;;;;;22.12;25.98;95623.91;6167133;28;20609;-84